Terminal Aerodrome Forecast
Issued by NWS

Home | Current Version | Previous Version | Text Only | Print | Product List | Glossary On
Versions: 1 2 3 4 5 6 7 8 9 10 11 12 13
000
FTUS44 KTSA 310500
TAFFYV
TAF
KFYV 310520Z 3106/0106 34007KT P6SM SKC
     FM311200 35011KT P6SM BKN020
     FM311800 36012G19KT P6SM SKC
     FM010000 03004KT P6SM SKC=

USA.gov is the U.S. government's official web portal to all federal, state and local government web resources and services.